Time;durP1;ratioP1;P1;durP2;ratioP2;P2;SDS_P1;SDS_P2;PMS_P1;PMS_P2;Temp;Humidity;BMP_temperature;BMP_pressure;BME280_temperature;BME280_humidity;BME280_pressure;Samples;Min_cycle;Max_cycle;Signal;HPM_P1;HPM_P2
2023/05/27 00:00:18;;;;;;;;;;;;;;;20.46;76.26;100775.91;7400020;19;984;-53
2023/05/27 00:02:47;;;;;;;;;;;;;;;20.46;76.29;100767.84;7396166;19;1527;-53
2023/05/27 00:05:15;;;;;;;;;;;;;;;20.46;76.28;100773.22;7398160;19;1839;-54
2023/05/27 00:07:43;;;;;;;;;;;;;;;20.46;76.10;100774.06;7399062;19;1559;-54
2023/05/27 00:10:12;;;;;;;;;;;;;;;20.44;76.30;100761.78;7397210;19;1472;-53
2023/05/27 00:12:40;;;;;;;;;;;;;;;20.45;76.03;100771.50;7400274;19;1222;-53
2023/05/27 00:15:12;;;;;;;;;;;;;;;20.41;76.68;100771.00;7397880;19;1864;-53
2023/05/27 00:17:42;;;;;;;;;;;;;;;20.42;76.40;100758.41;7400029;19;1860;-53
2023/05/27 00:20:12;;;;;;;;;;;;;;;20.44;76.43;100767.16;7399690;19;1836;-53
2023/05/27 00:22:41;;;;;;;;;;;;;;;20.42;75.89;100766.44;7400187;19;1809;-53
2023/05/27 00:25:10;;;;;;;;;;;;;;;20.42;75.87;100769.13;7397741;19;1865;-53
2023/05/27 00:27:38;;;;;;;;;;;;;;;20.45;76.25;100768.84;7399567;19;989;-53
2023/05/27 00:30:07;;;;;;;;;;;;;;;20.44;76.11;100769.84;7399597;19;1856;-53
2023/05/27 00:32:38;;;;;;;;;;;;;;;20.43;76.19;100762.75;7398990;19;1930;-53
2023/05/27 00:35:07;;;;;;;;;;;;;;;20.41;75.97;100759.38;7397663;19;1904;-53
2023/05/27 00:37:35;;;;;;;;;;;;;;;20.39;75.82;100767.59;7399289;19;1472;-54
2023/05/27 00:40:04;;;;;;;;;;;;;;;20.40;75.72;100763.06;7399010;19;1562;-54
2023/05/27 00:42:33;;;;;;;;;;;;;;;20.42;75.80;100763.75;7398666;19;1810;-53
2023/05/27 00:45:01;;;;;;;;;;;;;;;20.42;76.09;100755.72;7398147;19;1864;-53
2023/05/27 00:47:32;;;;;;;;;;;;;;;20.42;75.85;100751.19;7397831;19;1872;-53
2023/05/27 00:50:03;;;;;;;;;;;;;;;20.39;75.61;100758.66;7398845;19;1475;-54
2023/05/27 00:52:31;;;;;;;;;;;;;;;20.40;75.94;100757.69;7398631;19;1956;-54
2023/05/27 00:55:00;;;;;;;;;;;;;;;20.41;75.88;100760.25;7397823;19;1408;-53
2023/05/27 00:57:28;;;;;;;;;;;;;;;20.44;75.41;100765.31;7397378;19;1255;-53
2023/05/27 00:59:56;;;;;;;;;;;;;;;20.41;75.79;100764.75;7397324;19;1561;-53
2023/05/27 01:02:25;;;;;;;;;;;;;;;20.40;75.65;100747.78;7398365;19;1741;-53
2023/05/27 01:04:54;;;;;;;;;;;;;;;20.41;75.56;100754.00;7398015;19;1838;-53
2023/05/27 01:07:32;;;;;;;;;;;;;;;20.40;75.37;100752.31;7398764;19;1028;-53
2023/05/27 01:10:03;;;;;;;;;;;;;;;20.40;75.46;100746.94;7397653;19;1407;-53
2023/05/27 01:12:34;;;;;;;;;;;;;;;20.39;75.59;100750.63;7398926;19;2101;-53
2023/05/27 01:15:03;;;;;;;;;;;;;;;20.43;75.61;100760.06;7398077;19;1850;-53
2023/05/27 01:17:33;;;;;;;;;;;;;;;20.79;74.18;100744.16;7396824;19;1519;-53
2023/05/27 01:20:02;;;;;;;;;;;;;;;20.59;74.58;100749.63;7397975;19;1780;-53
2023/05/27 01:22:33;;;;;;;;;;;;;;;20.49;75.42;100756.81;7397816;19;1828;-54
2023/05/27 01:25:01;;;;;;;;;;;;;;;20.49;75.02;100746.06;7397741;19;1842;-53
2023/05/27 01:27:30;;;;;;;;;;;;;;;20.48;75.22;100756.97;7396533;19;836;-53
2023/05/27 01:29:58;;;;;;;;;;;;;;;20.48;75.24;100752.44;7397277;19;1847;-53
2023/05/27 01:32:30;;;;;;;;;;;;;;;20.50;74.83;100746.94;7396797;19;1532;-53
2023/05/27 01:35:01;;;;;;;;;;;;;;;20.49;74.90;100746.06;7396924;19;1546;-53
2023/05/27 01:37:32;;;;;;;;;;;;;;;20.52;74.90;100745.78;7397647;19;1566;-53
2023/05/27 01:40:04;;;;;;;;;;;;;;;20.84;73.88;100741.88;7396608;19;1470;-53
2023/05/27 01:42:33;;;;;;;;;;;;;;;20.57;74.55;100743.50;7397729;19;1722;-54
2023/05/27 01:45:02;;;;;;;;;;;;;;;20.54;75.07;100754.53;7397022;19;1817;-53
2023/05/27 01:47:30;;;;;;;;;;;;;;;20.57;74.15;100758.75;7397955;19;1951;-53
2023/05/27 01:49:58;;;;;;;;;;;;;;;20.57;74.25;100773.06;7396428;19;1851;-53
2023/05/27 01:52:27;;;;;;;;;;;;;;;20.56;74.17;100774.03;7396834;19;1927;-53
2023/05/27 01:54:55;;;;;;;;;;;;;;;20.49;74.62;100759.50;7396778;19;1823;-53
2023/05/27 01:57:26;;;;;;;;;;;;;;;20.73;74.11;100767.09;7396314;19;1631;-53
2023/05/27 01:59:55;;;;;;;;;;;;;;;20.66;74.52;100774.06;7394163;19;1724;-53
2023/05/27 02:02:23;;;;;;;;;;;;;;;20.60;74.47;100775.47;7396410;19;1968;-53
2023/05/27 02:04:51;;;;;;;;;;;;;;;20.56;74.93;100778.56;7397054;19;1841;-53
2023/05/27 02:07:21;;;;;;;;;;;;;;;20.60;74.76;100780.84;7397047;19;1214;-53
2023/05/27 02:09:49;;;;;;;;;;;;;;;20.69;73.88;100767.53;7393552;19;1440;-53
2023/05/27 02:12:17;;;;;;;;;;;;;;;20.76;73.92;100784.78;7394844;19;1229;-53
2023/05/27 02:14:49;;;;;;;;;;;;;;;20.90;73.24;100772.69;7396273;19;1598;-53
2023/05/27 02:17:17;;;;;;;;;;;;;;;20.86;73.73;100772.97;7396974;19;1761;-53
2023/05/27 02:19:45;;;;;;;;;;;;;;;20.97;73.36;100763.91;7395152;19;1586;-53
2023/05/27 02:22:14;;;;;;;;;;;;;;;20.86;73.45;100769.44;7395615;19;1641;-53
2023/05/27 02:24:42;;;;;;;;;;;;;;;20.98;73.36;100779.00;7395784;19;1842;-53
2023/05/27 02:27:10;;;;;;;;;;;;;;;21.11;72.72;100776.00;7392645;19;1105;-53
2023/05/27 02:29:38;;;;;;;;;;;;;;;21.15;72.36;100780.09;7395052;19;1853;-53
2023/05/27 02:32:09;;;;;;;;;;;;;;;21.15;72.34;100776.53;7394936;19;1203;-53
2023/05/27 02:34:38;;;;;;;;;;;;;;;21.18;72.06;100765.47;7394721;19;1270;-52
2023/05/27 02:37:07;;;;;;;;;;;;;;;21.19;72.38;100772.56;7396176;19;1649;-53
2023/05/27 02:39:35;;;;;;;;;;;;;;;21.19;72.27;100773.41;7395181;19;948;-53
2023/05/27 02:42:03;;;;;;;;;;;;;;;20.99;72.77;100769.09;7395411;19;1942;-53
2023/05/27 02:44:31;;;;;;;;;;;;;;;20.94;72.95;100766.88;7394972;19;1504;-54
2023/05/27 02:47:00;;;;;;;;;;;;;;;20.87;73.67;100784.59;7392940;19;1845;-53
2023/05/27 02:49:30;;;;;;;;;;;;;;;20.76;73.83;100776.72;7395682;19;1575;-53
2023/05/27 02:51:59;;;;;;;;;;;;;;;20.81;73.87;100785.16;7392993;19;1396;-52
2023/05/27 02:54:27;;;;;;;;;;;;;;;21.00;73.35;100777.03;7393421;19;1796;-53
2023/05/27 02:56:55;;;;;;;;;;;;;;;20.85;73.70;100783.91;7397346;19;1284;-53
2023/05/27 02:59:24;;;;;;;;;;;;;;;20.67;74.36;100770.34;7401389;19;1651;-52
2023/05/27 03:01:52;;;;;;;;;;;;;;;20.96;73.81;100777.47;7403190;19;1269;-52
2023/05/27 03:04:20;;;;;;;;;;;;;;;20.87;74.16;100781.91;7403116;19;1856;-53
2023/05/27 03:06:51;;;;;;;;;;;;;;;20.80;74.34;100786.16;7399698;19;1962;-53
2023/05/27 03:09:20;;;;;;;;;;;;;;;20.68;74.88;100787.34;7398830;19;1448;-53
2023/05/27 03:11:48;;;;;;;;;;;;;;;20.86;74.25;100801.72;7401764;19;1238;-52
2023/05/27 03:14:16;;;;;;;;;;;;;;;20.82;74.65;100787.72;7401518;19;1781;-52
2023/05/27 03:16:45;;;;;;;;;;;;;;;20.81;73.93;100782.47;7401038;19;1525;-51
2023/05/27 03:19:13;;;;;;;;;;;;;;;20.79;75.20;100788.03;7399052;19;1203;-50
2023/05/27 03:21:41;;;;;;;;;;;;;;;20.68;75.55;100787.34;7401565;19;1618;-50
2023/05/27 03:24:13;;;;;;;;;;;;;;;20.61;75.78;100798.69;7401183;19;1491;-50
2023/05/27 03:26:41;;;;;;;;;;;;;;;20.59;75.95;100787.22;7400303;19;1844;-51
2023/05/27 03:29:09;;;;;;;;;;;;;;;20.60;75.59;100783.53;7401229;19;1569;-50
2023/05/27 03:31:37;;;;;;;;;;;;;;;20.64;75.38;100798.38;7399387;19;1551;-50
2023/05/27 03:34:06;;;;;;;;;;;;;;;20.66;75.42;100798.25;7401069;19;1483;-52
2023/05/27 03:36:35;;;;;;;;;;;;;;;20.62;75.36;100795.00;7400881;19;1675;-51
2023/05/27 03:39:04;;;;;;;;;;;;;;;20.62;75.51;100788.78;7400738;19;1300;-50
2023/05/27 03:41:35;;;;;;;;;;;;;;;20.61;75.66;100801.38;7400354;19;1515;-51
2023/05/27 03:44:03;;;;;;;;;;;;;;;20.64;75.55;100811.81;7400593;19;1522;-52
2023/05/27 03:46:31;;;;;;;;;;;;;;;20.59;75.53;100800.66;7396866;19;1847;-53
2023/05/27 03:48:59;;;;;;;;;;;;;;;20.61;75.27;100809.44;7400690;19;1594;-52
2023/05/27 03:51:28;;;;;;;;;;;;;;;20.65;75.19;100802.78;7399951;19;1360;-52
2023/05/27 03:53:57;;;;;;;;;;;;;;;20.64;75.35;100811.81;7400379;19;1486;-52
2023/05/27 03:56:25;;;;;;;;;;;;;;;20.64;75.11;100810.97;7401033;19;1205;-52
2023/05/27 03:58:56;;;;;;;;;;;;;;;20.65;75.24;100802.78;7400349;19;1585;-52
2023/05/27 04:01:24;;;;;;;;;;;;;;;20.86;74.63;100807.09;7400486;19;1175;-52
2023/05/27 04:03:53;;;;;;;;;;;;;;;20.70;75.25;100812.22;7400858;19;1526;-50
2023/05/27 04:06:21;;;;;;;;;;;;;;;20.62;75.50;100808.41;7398849;19;1842;-52
2023/05/27 04:08:49;;;;;;;;;;;;;;;20.63;75.47;100802.06;7398481;19;1546;-52
2023/05/27 04:11:17;;;;;;;;;;;;;;;20.77;75.29;100816.00;7399303;19;1733;-51
2023/05/27 04:13:46;;;;;;;;;;;;;;;20.68;75.18;100798.09;7398608;19;1487;-50
2023/05/27 04:16:17;;;;;;;;;;;;;;;20.58;75.79;100816.91;7400955;19;1714;-50
2023/05/27 04:18:48;;;;;;;;;;;;;;;20.64;75.70;100803.75;7396105;19;1462;-53
2023/05/27 04:21:16;;;;;;;;;;;;;;;20.78;74.97;100805.13;7399450;19;1410;-51
2023/05/27 04:23:45;;;;;;;;;;;;;;;20.94;74.56;100812.56;7397333;19;1326;-52
2023/05/27 04:26:14;;;;;;;;;;;;;;;20.80;74.96;100808.50;7400234;19;1845;-52
2023/05/27 04:28:45;;;;;;;;;;;;;;;20.79;75.10;100816.72;7399384;19;1385;-52
2023/05/27 04:31:15;;;;;;;;;;;;;;;20.77;74.52;100819.56;7399475;19;1734;-52
2023/05/27 04:33:46;;;;;;;;;;;;;;;20.65;73.45;100831.47;7399780;19;1729;-52
2023/05/27 04:36:17;;;;;;;;;;;;;;;20.66;74.38;100817.03;7398467;19;1527;-51
2023/05/27 04:38:46;;;;;;;;;;;;;;;20.82;73.98;100822.66;7398377;19;1384;-53
2023/05/27 04:41:14;;;;;;;;;;;;;;;20.92;73.44;100808.34;7398928;19;1480;-49
2023/05/27 04:43:43;;;;;;;;;;;;;;;20.97;73.73;100830.22;7397847;19;1484;-52
2023/05/27 04:46:12;;;;;;;;;;;;;;;21.02;74.00;100818.06;7397306;19;1861;-52
2023/05/27 04:48:40;;;;;;;;;;;;;;;20.87;74.51;100816.84;7398253;19;1306;-52
2023/05/27 04:51:15;;;;;;;;;;;;;;;21.08;73.53;100826.53;7398454;19;1543;-52
2023/05/27 04:53:43;;;;;;;;;;;;;;;21.06;73.83;100829.38;7398950;19;1707;-50
2023/05/27 04:56:14;;;;;;;;;;;;;;;21.02;74.83;100818.06;7396442;19;1202;-51
2023/05/27 04:58:43;;;;;;;;;;;;;;;21.14;74.38;100829.47;7395325;19;1505;-52
2023/05/27 05:01:17;;;;;;;;;;;;;;;21.02;74.75;100823.44;7396545;19;1285;-52
2023/05/27 05:03:52;;;;;;;;;;;;;;;21.17;73.58;100825.63;7397674;19;1852;-53
2023/05/27 05:06:23;;;;;;;;;;;;;;;21.21;74.21;100827.88;7398088;19;1865;-52
2023/05/27 05:08:52;;;;;;;;;;;;;;;21.39;74.01;100841.41;7395517;19;1517;-52
2023/05/27 05:11:21;;;;;;;;;;;;;;;21.34;74.04;100838.28;7397524;19;1171;-49
2023/05/27 05:13:49;;;;;;;;;;;;;;;21.33;74.42;100846.50;7397864;19;1940;-51
2023/05/27 05:16:20;;;;;;;;;;;;;;;21.08;75.39;100832.75;7395714;19;2005;-53
2023/05/27 05:18:49;;;;;;;;;;;;;;;21.16;73.07;100845.47;7398567;19;1834;-53
2023/05/27 05:21:17;;;;;;;;;;;;;;;21.05;74.48;100847.34;7395603;19;1440;-53
2023/05/27 05:23:48;;;;;;;;;;;;;;;20.97;74.74;100843.69;7396868;19;1525;-53
2023/05/27 05:26:16;;;;;;;;;;;;;;;21.01;74.76;100848.63;7396681;19;1845;-52
2023/05/27 05:28:44;;;;;;;;;;;;;;;20.99;74.48;100847.94;7397484;19;1428;-52
2023/05/27 05:31:13;;;;;;;;;;;;;;;20.98;74.80;100850.75;7396988;19;1480;-52
2023/05/27 05:33:41;;;;;;;;;;;;;;;20.94;74.95;100842.13;7396773;19;1187;-50
2023/05/27 05:36:10;;;;;;;;;;;;;;;20.91;75.05;100853.19;7395845;19;1495;-51
2023/05/27 05:38:38;;;;;;;;;;;;;;;20.96;74.85;100845.53;7398723;19;1227;-53
2023/05/27 05:41:09;;;;;;;;;;;;;;;21.04;74.44;100842.94;7396694;19;1385;-52
2023/05/27 05:43:37;;;;;;;;;;;;;;;20.85;75.28;100841.19;7396448;19;1544;-52
2023/05/27 05:46:06;;;;;;;;;;;;;;;20.96;75.06;100848.22;7394358;19;1964;-52
2023/05/27 05:48:34;;;;;;;;;;;;;;;20.99;74.57;100850.63;7395219;19;1309;-53
2023/05/27 05:51:03;;;;;;;;;;;;;;;20.83;75.07;100853.06;7396992;19;1781;-51
2023/05/27 05:53:31;;;;;;;;;;;;;;;20.93;74.74;100851.22;7397449;19;1440;-51
2023/05/27 05:56:00;;;;;;;;;;;;;;;20.95;74.94;100861.78;7395299;19;1337;-53
2023/05/27 05:58:30;;;;;;;;;;;;;;;20.97;74.95;100854.44;7396100;19;1464;-53
2023/05/27 06:01:00;;;;;;;;;;;;;;;21.10;75.07;100859.50;7396898;19;1154;-54
2023/05/27 06:03:28;;;;;;;;;;;;;;;21.08;75.10;100856.13;7395598;19;1511;-53
2023/05/27 06:05:56;;;;;;;;;;;;;;;21.20;74.33;100857.63;7394930;19;1861;-52
2023/05/27 06:08:25;;;;;;;;;;;;;;;21.19;74.18;100854.09;7393693;19;1408;-54
2023/05/27 06:10:53;;;;;;;;;;;;;;;21.12;74.16;100862.88;7395502;19;1135;-54
2023/05/27 06:13:21;;;;;;;;;;;;;;;20.97;74.93;100863.38;7395858;19;1187;-53
2023/05/27 06:15:52;;;;;;;;;;;;;;;21.05;74.75;100865.31;7395949;19;1436;-54
2023/05/27 06:18:21;;;;;;;;;;;;;;;21.00;74.58;100867.59;7396789;19;1827;-53
2023/05/27 06:20:49;;;;;;;;;;;;;;;20.91;74.76;100863.94;7396599;19;1840;-53
2023/05/27 06:23:17;;;;;;;;;;;;;;;20.88;74.88;100864.22;7395909;19;1851;-54
2023/05/27 06:25:46;;;;;;;;;;;;;;;21.16;73.81;100872.34;7395669;19;1317;-53
2023/05/27 06:28:14;;;;;;;;;;;;;;;20.99;74.45;100866.75;7392862;19;1834;-53
2023/05/27 06:30:42;;;;;;;;;;;;;;;20.96;73.48;100875.09;7395791;19;1627;-52
2023/05/27 06:33:13;;;;;;;;;;;;;;;21.05;74.20;100876.09;7398294;19;1379;-53
2023/05/27 06:35:41;;;;;;;;;;;;;;;21.08;74.17;100866.88;7404266;19;1302;-52
2023/05/27 06:38:10;;;;;;;;;;;;;;;21.08;75.03;100865.00;7404077;19;1648;-52
2023/05/27 06:40:38;;;;;;;;;;;;;;;21.04;74.30;100864.47;7400427;19;1615;-52
2023/05/27 06:43:06;;;;;;;;;;;;;;;21.02;73.82;100844.94;7403277;19;1377;-52
2023/05/27 06:45:34;;;;;;;;;;;;;;;21.03;73.30;100845.81;7403551;19;1533;-53
2023/05/27 06:48:03;;;;;;;;;;;;;;;21.02;73.28;100858.38;7401278;19;1884;-54
2023/05/27 06:50:34;;;;;;;;;;;;;;;20.99;73.27;100866.75;7404041;19;1317;-54
2023/05/27 06:53:02;;;;;;;;;;;;;;;20.93;72.69;100856.59;7403971;19;1022;-55
2023/05/27 06:55:30;;;;;;;;;;;;;;;21.09;72.24;100861.34;7403204;19;1461;-54
2023/05/27 06:57:59;;;;;;;;;;;;;;;21.14;72.03;100859.03;7402928;19;1828;-56
2023/05/27 07:00:27;;;;;;;;;;;;;;;21.35;71.92;100877.66;7402321;19;1859;-55
2023/05/27 07:02:55;;;;;;;;;;;;;;;21.57;71.18;100864.84;7403306;19;1726;-55
2023/05/27 07:05:23;;;;;;;;;;;;;;;21.34;72.35;100865.19;7402144;19;1321;-55
2023/05/27 07:07:55;;;;;;;;;;;;;;;21.43;72.12;100874.25;7398215;19;1844;-53
2023/05/27 07:10:23;;;;;;;;;;;;;;;21.44;72.13;100854.41;7400379;19;1259;-54
2023/05/27 07:12:51;;;;;;;;;;;;;;;21.24;73.26;100872.47;7401468;19;1214;-53
2023/05/27 07:15:19;;;;;;;;;;;;;;;21.12;73.78;100870.94;7403373;19;1985;-54
2023/05/27 07:17:48;;;;;;;;;;;;;;;21.10;73.91;100863.03;7402353;19;1869;-55
2023/05/27 07:20:16;;;;;;;;;;;;;;;21.15;73.38;100851.81;7401799;19;1813;-54
2023/05/27 07:22:44;;;;;;;;;;;;;;;21.14;73.82;100866.28;7399190;19;1358;-53
2023/05/27 07:25:15;;;;;;;;;;;;;;;21.20;73.12;100852.25;7398804;19;1470;-53
2023/05/27 07:27:43;;;;;;;;;;;;;;;21.33;72.79;100852.75;7399230;19;1851;-53
2023/05/27 07:30:12;;;;;;;;;;;;;;;21.32;72.79;100850.22;7399714;19;1547;-55
2023/05/27 07:32:40;;;;;;;;;;;;;;;21.19;73.34;100872.06;7400609;19;1865;-53
2023/05/27 07:35:09;;;;;;;;;;;;;;;21.11;73.20;100853.09;7399517;19;1542;-53
2023/05/27 07:37:38;;;;;;;;;;;;;;;21.03;73.64;100846.66;7398828;19;1606;-51
2023/05/27 07:40:06;;;;;;;;;;;;;;;21.06;73.78;100858.94;7396209;19;1528;-53
2023/05/27 07:42:38;;;;;;;;;;;;;;;21.30;73.11;100847.66;7396247;19;1690;-53
2023/05/27 07:45:07;;;;;;;;;;;;;;;21.17;73.59;100858.75;7395732;19;1579;-53
2023/05/27 07:47:35;;;;;;;;;;;;;;;20.97;72.50;100858.00;7394023;19;1857;-53
2023/05/27 07:50:03;;;;;;;;;;;;;;;20.82;72.75;100859.44;7395422;19;1531;-53
2023/05/27 07:52:32;;;;;;;;;;;;;;;20.80;72.79;100856.88;7396216;19;1875;-53
2023/05/27 07:55:00;;;;;;;;;;;;;;;20.64;72.99;100845.91;7397024;19;1785;-52
2023/05/27 07:57:28;;;;;;;;;;;;;;;20.59;72.95;100883.09;7396344;19;1479;-52
2023/05/27 07:59:59;;;;;;;;;;;;;;;20.58;72.55;100860.72;7395461;19;1858;-52
2023/05/27 08:02:27;;;;;;;;;;;;;;;20.65;72.84;100858.31;7395638;19;1783;-53
2023/05/27 08:04:57;;;;;;;;;;;;;;;20.56;72.60;100849.28;7396564;19;1740;-52
2023/05/27 08:07:25;;;;;;;;;;;;;;;20.52;72.47;100863.16;7395851;19;1845;-54
2023/05/27 08:09:53;;;;;;;;;;;;;;;20.55;72.99;100863.72;7394623;19;1785;-53
2023/05/27 08:12:21;;;;;;;;;;;;;;;20.60;72.64;100856.09;7400140;19;1471;-64
2023/05/27 08:14:50;;;;;;;;;;;;;;;20.72;72.63;100869.38;7398838;19;1468;-53
2023/05/27 08:17:21;;;;;;;;;;;;;;;20.89;72.31;100859.69;7397574;19;1412;-53
2023/05/27 08:19:49;;;;;;;;;;;;;;;20.83;72.28;100871.88;7397964;19;1440;-53
2023/05/27 08:22:18;;;;;;;;;;;;;;;20.66;72.88;100876.16;7400304;19;1607;-53
2023/05/27 08:24:46;;;;;;;;;;;;;;;20.68;73.01;100874.19;7399625;19;1143;-53
2023/05/27 08:27:16;;;;;;;;;;;;;;;20.65;73.27;100853.81;7398056;19;1860;-53
2023/05/27 08:29:44;;;;;;;;;;;;;;;20.69;73.50;100864.25;7398696;19;1393;-53
2023/05/27 08:32:13;;;;;;;;;;;;;;;20.71;73.83;100875.72;7397827;19;1853;-53
2023/05/27 08:34:44;;;;;;;;;;;;;;;20.65;73.62;100875.31;7399512;19;1792;-54
2023/05/27 08:48:58;;;;;;;;;;;;;;;20.70;73.54;100860.59;6908762;19;10002494;-54
2023/05/27 08:51:26;;;;;;;;;;;;;;;20.13;73.54;100767.31;7424755;19;1846;-55
2023/05/27 08:53:55;;;;;;;;;;;;;;;20.68;73.63;100862.59;7424594;19;1750;-54
2023/05/27 08:56:25;;;;;;;;;;;;;;;20.86;72.92;100858.16;7428378;19;1858;-54
2023/05/27 08:58:53;;;;;;;;;;;;;;;20.85;73.14;100851.09;7432310;19;1318;-54
2023/05/27 09:01:23;;;;;;;;;;;;;;;20.84;73.01;100862.81;7432233;19;1200;-54
2023/05/27 09:03:51;;;;;;;;;;;;;;;20.81;73.25;100858.59;7432835;19;1590;-54
2023/05/27 09:06:22;;;;;;;;;;;;;;;20.82;73.03;100859.44;7432045;19;1222;-54
2023/05/27 09:08:50;;;;;;;;;;;;;;;20.78;73.13;100858.03;7430200;19;1534;-54
2023/05/27 09:11:23;;;;;;;;;;;;;;;20.84;72.96;100857.44;7432127;19;1413;-54
2023/05/27 09:13:51;;;;;;;;;;;;;;;20.82;73.15;100857.59;7430946;19;1654;-55
2023/05/27 09:16:23;;;;;;;;;;;;;;;20.85;72.99;100853.78;7431075;19;1859;-54
2023/05/27 09:18:51;;;;;;;;;;;;;;;20.96;72.99;100858.13;7431043;19;1595;-54
2023/05/27 09:21:22;;;;;;;;;;;;;;;21.00;72.60;100844.22;7430099;19;1730;-54
2023/05/27 09:23:50;;;;;;;;;;;;;;;21.02;72.47;100842.25;7417170;19;1745;-54
2023/05/27 09:26:19;;;;;;;;;;;;;;;21.09;71.97;100838.97;7425684;19;1806;-54
2023/05/27 09:28:47;;;;;;;;;;;;;;;21.26;71.69;100846.25;7425644;19;1431;-54
2023/05/27 09:31:15;;;;;;;;;;;;;;;21.26;71.67;100830.97;7429372;19;1488;-54
2023/05/27 09:33:44;;;;;;;;;;;;;;;21.30;71.63;100841.44;7431507;19;1235;-54
2023/05/27 09:36:12;;;;;;;;;;;;;;;21.28;71.63;100836.19;7431109;19;1852;-54
2023/05/27 09:38:43;;;;;;;;;;;;;;;21.26;71.59;100838.19;7424381;19;1864;-54
2023/05/27 09:41:11;;;;;;;;;;;;;;;21.28;71.69;100828.13;7430587;19;1380;-54
2023/05/27 09:43:40;;;;;;;;;;;;;;;21.31;71.72;100827.84;7429185;19;1759;-55
2023/05/27 09:46:13;;;;;;;;;;;;;;;21.29;71.57;100829.84;7430585;19;1545;-54
2023/05/27 09:48:42;;;;;;;;;;;;;;;21.35;71.58;100823.03;7415905;19;1482;-54
2023/05/27 09:51:10;;;;;;;;;;;;;;;21.34;71.52;100816.78;7401579;19;1674;-54
2023/05/27 09:53:39;;;;;;;;;;;;;;;21.28;71.95;100825.44;7402212;19;1032;-54
2023/05/27 09:56:10;;;;;;;;;;;;;;;21.23;72.03;100819.69;7401873;19;1856;-54
2023/05/27 09:58:39;;;;;;;;;;;;;;;21.26;71.64;100827.44;7397594;19;1841;-54
2023/05/27 10:01:07;;;;;;;;;;;;;;;21.35;71.85;100817.66;7401239;19;1943;-55
2023/05/27 10:03:37;;;;;;;;;;;;;;;21.19;72.14;100813.75;7401618;19;1427;-54
2023/05/27 10:06:06;;;;;;;;;;;;;;;21.30;71.77;100820.75;7401662;19;1363;-54
2023/05/27 10:08:34;;;;;;;;;;;;;;;21.26;71.88;100814.00;7398901;19;1854;-54
2023/05/27 10:11:03;;;;;;;;;;;;;;;21.16;72.23;100805.13;7399514;19;1483;-54
2023/05/27 10:13:34;;;;;;;;;;;;;;;21.24;72.01;100811.44;7401260;19;1746;-55
2023/05/27 10:16:02;;;;;;;;;;;;;;;21.13;72.33;100803.59;7400907;19;1379;-55
2023/05/27 10:18:33;;;;;;;;;;;;;;;21.14;72.28;100793.66;7399069;19;1850;-54
2023/05/27 10:21:02;;;;;;;;;;;;;;;20.53;72.71;100717.94;7400123;19;1719;-54
2023/05/27 10:23:31;;;;;;;;;;;;;;;21.16;71.89;100792.50;7396522;19;1620;-54
2023/05/27 10:26:04;;;;;;;;;;;;;;;21.07;71.98;100798.81;7400616;19;1537;-54
2023/05/27 10:28:36;;;;;;;;;;;;;;;21.26;71.42;100787.94;7398117;19;1496;-54
2023/05/27 10:31:07;;;;;;;;;;;;;;;21.19;71.70;100794.91;7400792;19;1718;-55
2023/05/27 10:33:37;;;;;;;;;;;;;;;21.23;71.79;100779.34;7400363;19;1711;-54
2023/05/27 10:36:06;;;;;;;;;;;;;;;21.38;71.20;100774.28;7401380;19;1042;-53
2023/05/27 10:38:35;;;;;;;;;;;;;;;21.34;71.48;100768.34;7396589;19;1857;-55
2023/05/27 10:41:05;;;;;;;;;;;;;;;21.20;71.56;100772.41;7399660;19;1730;-54
2023/05/27 10:43:36;;;;;;;;;;;;;;;21.25;71.51;100762.06;7399209;19;1719;-54
2023/05/27 10:46:05;;;;;;;;;;;;;;;21.32;71.28;100756.06;7397914;19;1952;-54
2023/05/27 10:48:35;;;;;;;;;;;;;;;21.40;71.14;100754.28;7396100;19;1498;-55
2023/05/27 10:51:03;;;;;;;;;;;;;;;21.20;71.76;100739.28;7399518;19;1610;-54
2023/05/27 10:53:32;;;;;;;;;;;;;;;21.13;72.35;100748.94;7397482;19;1960;-55
2023/05/27 10:56:00;;;;;;;;;;;;;;;21.44;71.21;100742.25;7397889;19;1515;-55
2023/05/27 10:58:29;;;;;;;;;;;;;;;21.32;71.30;100738.06;7399125;19;1859;-55
2023/05/27 11:01:00;;;;;;;;;;;;;;;21.39;71.61;100747.25;7398401;19;1303;-55
2023/05/27 11:03:30;;;;;;;;;;;;;;;21.15;72.34;100731.69;7400962;19;1726;-55
2023/05/27 11:06:02;;;;;;;;;;;;;;;21.15;72.19;100715.53;7397954;19;1901;-55
2023/05/27 11:08:31;;;;;;;;;;;;;;;21.21;71.38;100724.84;7396679;19;1494;-55
2023/05/27 11:11:00;;;;;;;;;;;;;;;21.33;71.20;100707.50;7398049;19;1541;-54
2023/05/27 11:13:35;;;;;;;;;;;;;;;21.38;71.44;100705.19;7399191;19;1466;-54
2023/05/27 11:16:07;;;;;;;;;;;;;;;21.42;71.37;100705.72;7398152;19;1418;-54
2023/05/27 11:18:38;;;;;;;;;;;;;;;21.36;71.39;100709.88;7397490;19;1865;-55
2023/05/27 11:21:07;;;;;;;;;;;;;;;21.44;71.28;100698.38;7398552;19;1750;-54
2023/05/27 11:23:39;;;;;;;;;;;;;;;21.36;71.38;100699.09;7395590;19;1305;-55
2023/05/27 11:26:12;;;;;;;;;;;;;;;21.24;71.89;100693.09;7397746;19;1418;-54
2023/05/27 11:28:47;;;;;;;;;;;;;;;21.46;71.34;100691.00;7397125;19;1548;-54
2023/05/27 11:31:19;;;;;;;;;;;;;;;21.52;71.32;100703.00;7396219;19;1360;-54
2023/05/27 11:33:48;;;;;;;;;;;;;;;21.65;70.78;100690.00;7398431;19;1496;-54
2023/05/27 11:36:17;;;;;;;;;;;;;;;21.59;70.90;100696.00;7399405;19;1038;-54
2023/05/27 11:38:50;;;;;;;;;;;;;;;21.73;70.78;100681.16;7395791;19;1959;-54
2023/05/27 11:41:19;;;;;;;;;;;;;;;21.51;71.47;100690.56;7398634;19;1948;-54
2023/05/27 11:43:54;;;;;;;;;;;;;;;21.59;71.32;100669.09;7396639;19;1592;-54
2023/05/27 11:46:25;;;;;;;;;;;;;;;21.79;70.42;100665.22;7397898;19;1794;-54
2023/05/27 11:48:54;;;;;;;;;;;;;;;21.72;70.92;100663.31;7398674;19;1464;-54
2023/05/27 11:51:29;;;;;;;;;;;;;;;21.60;71.37;100671.63;7398233;19;1434;-54
2023/05/27 11:53:58;;;;;;;;;;;;;;;21.67;71.16;100671.88;7397431;19;1829;-54
2023/05/27 11:56:28;;;;;;;;;;;;;;;21.71;72.64;100654.41;7397063;19;1469;-54
2023/05/27 11:58:56;;;;;;;;;;;;;;;21.82;70.99;100642.53;7395350;19;1857;-54
2023/05/27 12:01:28;;;;;;;;;;;;;;;21.88;71.10;100646.44;7398614;19;1521;-54
2023/05/27 12:03:56;;;;;;;;;;;;;;;21.81;72.71;100644.38;7395426;19;1483;-50
2023/05/27 12:06:25;;;;;;;;;;;;;;;21.68;73.38;100635.03;7392346;19;1888;-59
2023/05/27 12:08:53;;;;;;;;;;;;;;;21.81;74.15;100635.47;7397261;19;1078;-58
2023/05/27 12:11:21;;;;;;;;;;;;;;;21.75;74.82;100644.19;7397486;19;1446;-58
2023/05/27 12:13:51;;;;;;;;;;;;;;;21.89;74.44;100632.00;7396629;19;1870;-58
2023/05/27 12:16:19;;;;;;;;;;;;;;;21.96;74.51;100627.66;7395924;19;2012;-58
2023/05/27 12:18:50;;;;;;;;;;;;;;;21.98;76.69;100636.41;7395285;19;1869;-59
2023/05/27 12:21:19;;;;;;;;;;;;;;;21.98;77.47;100620.25;7393289;19;1269;-52
2023/05/27 12:23:48;;;;;;;;;;;;;;;21.97;78.16;100597.03;7390452;19;1726;-52
2023/05/27 12:26:17;;;;;;;;;;;;;;;22.01;77.86;100603.78;7392319;19;1561;-52
2023/05/27 12:28:45;;;;;;;;;;;;;;;22.09;77.21;100614.63;7395693;19;1410;-53
2023/05/27 12:31:13;;;;;;;;;;;;;;;22.01;78.35;100609.19;7395783;19;1452;-52
2023/05/27 12:33:42;;;;;;;;;;;;;;;22.01;78.04;100618.09;7396285;19;1407;-53
2023/05/27 12:36:13;;;;;;;;;;;;;;;22.12;76.52;100614.28;7397294;19;1032;-52
2023/05/27 12:38:41;;;;;;;;;;;;;;;22.16;77.32;100604.91;7394275;19;1849;-52
2023/05/27 12:41:09;;;;;;;;;;;;;;;21.98;76.61;100601.41;7395629;19;1442;-51
2023/05/27 12:43:37;;;;;;;;;;;;;;;22.01;76.08;100595.72;7394605;19;1730;-51
2023/05/27 12:46:06;;;;;;;;;;;;;;;21.92;76.07;100597.50;7395368;19;1533;-53
2023/05/27 12:48:34;;;;;;;;;;;;;;;21.96;75.83;100574.63;7396412;19;1482;-49
2023/05/27 12:51:03;;;;;;;;;;;;;;;21.97;76.38;100578.19;7396113;19;1507;-52
2023/05/27 12:53:33;;;;;;;;;;;;;;;22.01;75.69;100576.88;7391857;19;1484;-51
2023/05/27 12:56:02;;;;;;;;;;;;;;;21.96;76.32;100582.72;7395330;19;1809;-48
2023/05/27 12:58:30;;;;;;;;;;;;;;;22.05;75.38;100559.38;7394810;19;1865;-52
2023/05/27 13:00:58;;;;;;;;;;;;;;;22.16;75.34;100564.50;7396266;19;1411;-49
2023/05/27 13:03:27;;;;;;;;;;;;;;;21.98;76.99;100548.41;7395502;19;1823;-50
2023/05/27 13:05:55;;;;;;;;;;;;;;;22.10;76.05;100543.56;7394665;19;1458;-51
2023/05/27 13:08:23;;;;;;;;;;;;;;;21.98;76.31;100550.25;7392994;19;1314;-49